CDT,Max TemperatureF,Mean TemperatureF,Min TemperatureF,Max Dew PointF,MeanDew PointF,Min DewpointF,Max Humidity, Mean Humidity, Min Humidity, Max Sea Level PressureIn, Mean Sea Level PressureIn, Min Sea Level PressureIn, Max VisibilityMiles, Mean VisibilityMiles, Min VisibilityMiles, Max Wind SpeedMPH, Mean Wind SpeedMPH, Max Gust SpeedMPH,PrecipitationIn, CloudCover, Events, WindDirDegrees
2013-10-1,81,64,48,60,54,48,96,68,35,29.93,29.88,29.81,10,10,10,14,8,17,0.00,,,136
2013-10-2,86,72,59,63,59,53,97,67,32,29.93,29.87,29.80,10,10,4,25,14,31,0.00,0,,160
2013-10-3,91,78,66,62,44,28,84,38,11,29.84,29.74,29.67,10,10,10,24,15,33,0.00,0,,186
2013-10-4,86,67,50,58,42,30,74,41,17,30.10,29.86,29.71,10,10,10,25,18,33,0.00,0,,337
2013-10-5,65,54,43,30,25,19,53,39,17,30.20,30.15,30.11,10,10,7,30,21,37,0.00,1,,330
2013-10-6,74,55,36,35,28,23,66,43,17,30.21,30.16,30.11,10,10,10,25,9,33,0.00,0,,316
2013-10-7,79,60,41,41,37,31,78,48,17,30.23,30.15,30.05,10,10,4,13,7,17,0.00,0,,215
2013-10-8,83,66,49,40,36,28,66,38,14,30.07,29.97,29.87,10,10,4,31,15,38,0.00,0,,169
2013-10-9,83,65,48,46,40,37,70,42,21,29.96,29.92,29.89,10,10,7,25,15,33,0.00,0,,162
2013-10-10,82,66,51,60,51,46,92,58,31,29.94,29.85,29.67,10,10,0,34,17,44,0.39,1,,164
2013-10-11,74,61,49,60,42,34,83,53,23,29.96,29.82,29.76,10,10,10,22,12,29,0.00,1,,234
2013-10-12,67,54,41,46,40,34,92,60,30,30.23,30.14,29.96,10,10,7,22,10,26,0.00,0,,58
2013-10-13,69,56,43,61,49,38,96,80,64,30.30,30.22,30.15,10,9,3,22,9,24,0.07,3,,115
2013-10-14,80,66,51,65,55,35,97,72,24,30.14,29.96,29.80,10,8,2,26,16,33,0.01,4,,188
2013-10-15,59,50,40,38,33,29,76,58,32,30.22,30.15,30.06,10,10,7,25,16,34,0.00,1,,356
2013-10-16,49,44,38,42,37,32,97,81,64,30.22,30.15,30.04,10,9,3,10,7,,0.12,5,,310
2013-10-17,66,50,34,41,34,26,96,63,23,30.09,30.03,29.98,10,10,7,12,7,9,0.00,0,,342
2013-10-18,50,41,32,40,35,32,97,84,50,30.19,30.10,29.97,10,9,2,24,14,30,0.05,6,,33
2013-10-19,66,50,33,38,31,23,95,64,20,30.19,30.09,29.98,10,10,10,22,11,28,0.00,0,,233
2013-10-20,70,52,35,40,34,29,86,55,23,30.02,29.89,29.80,10,10,10,16,8,22,0.00,0,,267
2013-10-21,63,52,42,38,34,26,73,55,26,30.19,30.12,30.02,10,10,10,16,10,18,0.00,2,,348
2013-10-22,72,58,45,36,33,32,61,43,22,30.17,30.13,30.10,10,10,10,20,12,24,0.00,0,,284
2013-10-23,78,59,41,39,35,29,74,47,16,30.15,30.09,30.03,10,10,10,22,8,28,0.00,0,,237
2013-10-24,57,48,39,38,35,33,91,66,41,30.36,30.28,30.15,10,10,10,17,9,24,0.00,0,,92
2013-10-25,67,50,33,44,36,31,89,64,37,30.39,30.27,30.14,10,10,10,22,10,28,0.00,1,,168
2013-10-26,63,50,38,47,39,26,86,61,31,30.24,30.17,30.08,10,10,10,24,13,36,0.00,2,,335
2013-10-27,75,54,32,32,30,26,79,48,19,30.22,30.05,29.90,10,10,10,21,9,26,0.00,0,,211
2013-10-28,73,60,46,62,49,32,94,68,51,29.97,29.91,29.87,10,10,4,26,15,31,0.00,2,,171
2013-10-29,64,54,43,61,47,39,94,79,63,30.03,29.96,29.90,10,8,4,22,11,26,0.00,4,,247
2013-10-30,77,65,53,61,51,28,97,73,17,29.91,29.82,29.68,10,7,0,18,9,26,0.00,3,,212
2013-10-31,63,51,40,50,39,30,99,68,31,29.88,29.78,29.65,10,8,0,31,14,40,0.03,3,,310